Time;durP1;ratioP1;P1;durP2;ratioP2;P2;SDS_P1;SDS_P2;PMS_P1;PMS_P2;Temp;Humidity;BMP_temperature;BMP_pressure;BME280_temperature;BME280_humidity;BME280_pressure;Samples;Min_cycle;Max_cycle;Signal;HPM_P1;HPM_P2
2021/12/09 00:01:39;;;;;;;11.82;6.65;;;2.50;99.90;;;;;;5034631;28;20041;-73
2021/12/09 00:04:10;;;;;;;16.65;6.45;;;2.50;99.90;;;;;;5051960;28;20048;-73
2021/12/09 00:06:36;;;;;;;15.35;6.45;;;2.50;99.90;;;;;;5052132;28;20106;-73
2021/12/09 00:09:10;;;;;;;14.75;6.57;;;2.50;99.90;;;;;;5051620;28;20401;-73
2021/12/09 00:11:46;;;;;;;10.00;6.63;;;2.50;99.90;;;;;;5051776;28;20049;-74
2021/12/09 00:14:22;;;;;;;17.30;7.00;;;2.50;99.90;;;;;;5052025;28;20401;-73
2021/12/09 00:16:48;;;;;;;15.18;6.70;;;2.50;99.90;;;;;;5051937;28;20045;-74
2021/12/09 00:19:14;;;;;;;13.43;6.03;;;2.50;99.90;;;;;;5052203;28;20065;-73
2021/12/09 00:21:42;;;;;;;13.45;6.80;;;2.40;99.90;;;;;;5052124;28;20491;-74
2021/12/09 00:24:08;;;;;;;12.48;6.43;;;2.40;99.90;;;;;;5051473;28;20123;-73
2021/12/09 00:26:34;;;;;;;13.95;6.68;;;2.40;99.90;;;;;;5034989;28;20440;-73
2021/12/09 00:28:59;;;;;;;15.15;6.60;;;2.30;99.90;;;;;;5035980;28;20379;-74
2021/12/09 00:31:25;;;;;;;11.20;6.78;;;2.30;99.90;;;;;;5054125;28;20502;-74
2021/12/09 00:33:51;;;;;;;11.93;6.40;;;2.20;99.90;;;;;;5054975;28;20057;-75
2021/12/09 00:36:27;;;;;;;15.82;6.95;;;2.20;99.90;;;;;;5055539;28;20403;-74
2021/12/09 00:38:57;;;;;;;12.38;6.18;;;2.10;99.90;;;;;;5055194;28;20066;-74
2021/12/09 00:41:23;;;;;;;14.65;6.57;;;2.10;99.90;;;;;;5055039;28;20163;-73
2021/12/09 00:43:49;;;;;;;10.05;6.20;;;2.10;99.90;;;;;;5055753;28;20124;-73
2021/12/09 00:46:14;;;;;;;15.32;6.75;;;2.00;99.90;;;;;;5055491;28;20130;-75
2021/12/09 00:48:41;;;;;;;12.95;6.80;;;2.00;99.90;;;;;;5055251;28;20483;-73
2021/12/09 00:51:07;;;;;;;14.27;6.90;;;2.00;99.90;;;;;;5055272;28;20105;-73
2021/12/09 00:53:33;;;;;;;12.18;6.55;;;2.00;99.90;;;;;;5054575;28;20047;-75
2021/12/09 00:56:00;;;;;;;12.27;6.43;;;1.90;99.90;;;;;;5054830;28;20029;-75
2021/12/09 00:58:26;;;;;;;12.45;6.13;;;1.90;99.90;;;;;;5039099;28;20123;-75
2021/12/09 01:00:52;;;;;;;11.82;6.18;;;1.90;99.90;;;;;;5054811;28;20116;-73
2021/12/09 01:03:17;;;;;;;13.60;6.50;;;1.80;99.90;;;;;;5055169;28;20041;-74
2021/12/09 01:05:45;;;;;;;12.40;6.57;;;1.80;99.90;;;;;;5054948;28;20040;-74
2021/12/09 01:08:11;;;;;;;12.73;7.43;;;1.70;99.90;;;;;;5038077;28;20055;-74
2021/12/09 01:10:37;;;;;;;11.65;6.78;;;1.70;99.90;;;;;;5054715;28;20036;-73
2021/12/09 01:13:04;;;;;;;12.25;6.45;;;1.70;99.90;;;;;;5038381;28;20044;-74
2021/12/09 01:15:30;;;;;;;17.35;6.90;;;1.70;99.90;;;;;;5054864;28;20457;-73
2021/12/09 01:17:56;;;;;;;13.10;6.43;;;1.70;99.90;;;;;;5071028;28;20049;-74
2021/12/09 01:20:26;;;;;;;12.70;6.57;;;1.60;99.90;;;;;;5054634;28;20045;-75
2021/12/09 01:22:57;;;;;;;13.07;6.78;;;1.50;99.90;;;;;;5054694;28;20349;-74
2021/12/09 01:25:24;;;;;;;11.30;6.82;;;1.60;99.90;;;;;;5054593;28;20041;-73
2021/12/09 01:27:52;;;;;;;16.08;7.43;;;1.50;99.90;;;;;;5054865;28;20041;-73
2021/12/09 01:30:20;;;;;;;15.90;8.02;;;1.50;99.90;;;;;;5054592;28;20044;-74
2021/12/09 01:32:51;;;;;;;14.02;7.47;;;1.50;99.90;;;;;;5054400;28;20131;-73
2021/12/09 01:35:21;;;;;;;16.50;7.50;;;1.50;99.90;;;;;;5054237;28;20045;-73
2021/12/09 01:37:48;;;;;;;11.77;7.20;;;1.50;99.90;;;;;;5054242;28;20072;-74
2021/12/09 01:40:14;;;;;;;19.05;7.78;;;1.50;99.90;;;;;;5054289;28;20045;-73
2021/12/09 01:42:40;;;;;;;16.92;7.90;;;1.40;99.90;;;;;;5054208;28;20048;-74
2021/12/09 01:45:07;;;;;;;16.63;8.30;;;1.40;99.90;;;;;;5054117;28;20040;-73
2021/12/09 01:47:32;;;;;;;17.17;8.65;;;1.40;99.90;;;;;;5053575;28;20050;-74
2021/12/09 01:49:58;;;;;;;20.67;8.13;;;1.40;99.90;;;;;;5053542;28;20040;-74
2021/12/09 01:52:24;;;;;;;18.80;8.95;;;1.40;99.90;;;;;;5054459;28;20033;-74
2021/12/09 01:54:51;;;;;;;19.52;9.63;;;1.40;99.90;;;;;;5054167;28;20532;-74
2021/12/09 01:57:18;;;;;;;20.23;9.98;;;1.40;99.90;;;;;;5054079;28;20167;-75
2021/12/09 01:59:44;;;;;;;17.83;9.02;;;1.50;99.90;;;;;;5053676;28;20383;-74
2021/12/09 02:02:10;;;;;;;20.52;10.18;;;1.50;99.90;;;;;;5053781;28;20479;-75
2021/12/09 02:04:35;;;;;;;19.73;9.60;;;1.60;99.90;;;;;;5053929;28;20033;-75
2021/12/09 02:07:01;;;;;;;18.58;10.02;;;1.60;99.90;;;;;;5053998;28;20047;-73
2021/12/09 02:09:27;;;;;;;19.52;10.25;;;1.60;99.90;;;;;;5054297;28;20044;-74
2021/12/09 02:11:53;;;;;;;23.98;10.13;;;1.60;99.90;;;;;;5037447;28;20047;-74
2021/12/09 02:14:19;;;;;;;21.80;10.68;;;1.70;99.90;;;;;;5053611;28;20068;-74
2021/12/09 02:16:44;;;;;;;21.30;11.05;;;1.70;99.90;;;;;;5053068;28;20052;-74
2021/12/09 02:19:12;;;;;;;24.10;11.82;;;1.70;99.90;;;;;;5053177;28;20159;-74
2021/12/09 02:21:42;;;;;;;20.73;10.68;;;1.70;99.90;;;;;;5053860;28;20045;-74
2021/12/09 02:24:09;;;;;;;;;;;1.70;99.90;;;;;;5037841;28;20051;-74
2021/12/09 02:26:40;;;;;;;20.63;10.68;;;1.70;99.90;;;;;;5070209;28;19916;-73
2021/12/09 02:29:09;;;;;;;21.80;11.00;;;1.70;99.90;;;;;;5053301;28;20040;-74
2021/12/09 02:31:35;;;;;;;16.60;10.73;;;1.70;99.90;;;;;;5036440;28;20493;-75
2021/12/09 02:34:02;;;;;;;20.58;11.15;;;1.70;99.90;;;;;;5036672;28;20410;-74
2021/12/09 02:36:30;;;;;;;23.63;10.40;;;1.70;99.90;;;;;;5053517;28;20041;-74
2021/12/09 02:38:56;;;;;;;19.88;11.15;;;1.70;99.90;;;;;;5053289;28;20047;-74
2021/12/09 02:41:26;;;;;;;20.95;11.70;;;1.70;99.90;;;;;;5052901;28;20129;-73
2021/12/09 02:43:55;;;;;;;22.58;11.95;;;1.70;99.90;;;;;;5052417;28;20124;-74
2021/12/09 02:46:24;;;;;;;25.25;12.02;;;1.70;99.90;;;;;;5052821;28;20045;-75
2021/12/09 02:48:50;;;;;;;25.20;11.98;;;1.70;99.90;;;;;;5053287;28;20123;-74
2021/12/09 02:51:16;;;;;;;20.85;12.25;;;1.70;99.90;;;;;;5053121;28;20120;-75
2021/12/09 02:53:43;;;;;;;22.27;11.73;;;1.70;99.90;;;;;;5051824;28;20064;-75
2021/12/09 02:56:10;;;;;;;19.25;11.48;;;1.70;99.90;;;;;;5036314;28;20048;-73
2021/12/09 02:58:36;;;;;;;21.05;12.00;;;1.70;99.90;;;;;;5052671;28;20476;-74
2021/12/09 03:01:07;;;;;;;24.00;10.60;;;1.60;99.90;;;;;;5053172;28;20045;-74
2021/12/09 03:03:33;;;;;;;21.02;11.10;;;1.60;99.90;;;;;;5052814;28;20083;-75
2021/12/09 03:06:00;;;;;;;17.98;10.55;;;1.50;99.90;;;;;;5052856;28;20045;-75
2021/12/09 03:08:34;;;;;;;27.98;11.43;;;1.50;99.90;;;;;;5052797;28;20044;-74
2021/12/09 03:11:16;;;;;;;21.52;11.68;;;1.40;99.90;;;;;;5035944;28;20518;-75
2021/12/09 03:13:44;;;;;;;20.75;12.05;;;1.40;99.90;;;;;;5052020;28;20475;-74
2021/12/09 03:16:11;;;;;;;18.90;10.93;;;1.40;99.90;;;;;;5052784;28;20052;-74
2021/12/09 03:18:51;;;;;;;21.70;11.38;;;1.40;99.90;;;;;;5052566;28;20043;-75
2021/12/09 03:21:30;;;;;;;23.80;12.40;;;1.40;99.90;;;;;;5052318;28;20041;-73
2021/12/09 03:23:57;;;;;;;23.52;12.25;;;1.40;99.90;;;;;;5052676;28;20045;-74
2021/12/09 03:26:29;;;;;;;27.02;13.15;;;1.50;99.90;;;;;;5052696;28;20058;-75
2021/12/09 03:29:00;;;;;;;22.83;13.15;;;1.50;99.90;;;;;;5052621;28;20033;-74
2021/12/09 03:31:27;;;;;;;23.27;13.25;;;1.50;99.90;;;;;;5035842;28;20041;-74
2021/12/09 03:33:54;;;;;;;23.90;12.68;;;1.50;99.90;;;;;;5051983;28;20057;-75
2021/12/09 03:36:19;;;;;;;22.27;13.30;;;1.50;99.90;;;;;;5051671;28;20052;-75
2021/12/09 03:38:45;;;;;;;20.48;12.32;;;1.50;99.90;;;;;;5051899;28;20040;-73
2021/12/09 03:41:11;;;;;;;26.35;13.20;;;1.50;99.90;;;;;;5052617;28;20183;-74
2021/12/09 03:43:37;;;;;;;24.48;13.10;;;1.50;99.90;;;;;;5052520;28;20463;-74
2021/12/09 03:46:04;;;;;;;25.25;14.13;;;1.50;99.90;;;;;;5052294;28;20055;-74
2021/12/09 03:48:31;;;;;;;22.88;13.32;;;1.50;99.90;;;;;;5035659;28;20041;-75
2021/12/09 03:50:57;;;;;;;25.20;13.50;;;1.50;99.90;;;;;;5035334;28;20037;-74
2021/12/09 03:53:23;;;;;;;25.92;13.45;;;1.50;99.90;;;;;;5052539;28;20175;-74
2021/12/09 03:55:50;;;;;;;21.85;13.45;;;1.50;99.90;;;;;;5052422;28;20082;-74
2021/12/09 03:58:16;;;;;;;20.95;11.82;;;1.50;99.90;;;;;;5035427;28;20143;-73
2021/12/09 04:00:42;;;;;;;27.25;13.50;;;1.50;99.90;;;;;;5052009;28;20041;-73
2021/12/09 04:03:08;;;;;;;23.77;13.45;;;1.50;99.90;;;;;;5052202;28;20029;-75
2021/12/09 04:05:36;;;;;;;28.38;13.68;;;1.50;99.90;;;;;;5054312;28;20128;-74
2021/12/09 04:08:03;;;;;;;29.20;13.25;;;1.50;99.90;;;;;;5056152;28;20040;-75
2021/12/09 04:10:29;;;;;;;23.08;13.98;;;1.50;99.90;;;;;;5056103;28;20468;-75
2021/12/09 04:12:56;;;;;;;28.08;14.02;;;1.50;99.90;;;;;;5055879;28;20041;-75
2021/12/09 04:15:22;;;;;;;28.25;14.77;;;1.50;99.90;;;;;;5055869;28;20045;-75
2021/12/09 04:17:48;;;;;;;25.98;14.13;;;1.50;99.90;;;;;;5038749;28;20384;-74
2021/12/09 04:20:13;;;;;;;31.42;15.15;;;1.50;99.90;;;;;;5054980;28;20471;-75
2021/12/09 04:22:39;;;;;;;27.65;14.60;;;1.50;99.90;;;;;;5039424;28;20049;-74
2021/12/09 04:25:06;;;;;;;30.00;13.85;;;1.50;99.90;;;;;;5055179;28;20132;-75
2021/12/09 04:27:31;;;;;;;24.60;14.30;;;1.40;99.90;;;;;;5055720;28;20484;-74
2021/12/09 04:29:57;;;;;;;25.83;14.15;;;1.50;99.90;;;;;;5055661;28;20047;-75
2021/12/09 04:32:23;;;;;;;26.55;14.18;;;1.50;99.90;;;;;;5055559;28;20053;-75
2021/12/09 04:34:53;;;;;;;25.35;13.60;;;1.50;99.90;;;;;;5055397;28;20056;-76
2021/12/09 04:37:19;;;;;;;29.55;13.95;;;1.50;99.90;;;;;;5055303;28;20368;-75
2021/12/09 04:39:45;;;;;;;25.00;15.18;;;1.50;99.90;;;;;;5038865;28;20475;-75
2021/12/09 04:42:11;;;;;;;30.88;14.48;;;1.50;99.90;;;;;;5055607;28;20151;-75
2021/12/09 04:44:37;;;;;;;28.02;14.27;;;1.50;99.90;;;;;;5055477;28;20128;-75
2021/12/09 04:47:03;;;;;;;25.23;13.80;;;1.50;99.90;;;;;;5055120;28;20094;-74
2021/12/09 04:49:28;;;;;;;27.05;15.10;;;1.50;99.90;;;;;;5056226;28;20359;-75
2021/12/09 04:51:54;;;;;;;25.52;13.73;;;1.50;99.90;;;;;;5039244;28;20037;-76
2021/12/09 04:54:20;;;;;;;23.60;13.68;;;1.40;99.90;;;;;;5038604;28;20041;-75
2021/12/09 04:56:46;;;;;;;23.58;13.23;;;1.50;99.90;;;;;;5055238;28;20047;-74
2021/12/09 04:59:12;;;;;;;23.38;13.93;;;1.40;99.90;;;;;;5055147;28;20541;-74
2021/12/09 05:01:37;;;;;;;23.58;13.40;;;1.30;99.90;;;;;;5037964;28;20037;-74
2021/12/09 05:04:04;;;;;;;22.33;13.70;;;1.30;99.90;;;;;;5054824;28;20498;-74
2021/12/09 05:06:30;;;;;;;24.85;13.68;;;1.30;99.90;;;;;;5054180;28;20461;-75
2021/12/09 05:09:04;;;;;;;23.30;12.65;;;1.30;99.90;;;;;;5055047;28;20438;-76
2021/12/09 05:11:47;;;;;;;21.83;13.05;;;1.20;99.90;;;;;;5038344;28;20047;-75
2021/12/09 05:14:15;;;;;;;19.73;12.38;;;1.20;99.90;;;;;;5038030;28;20067;-75
2021/12/09 05:16:42;;;;;;;25.10;13.35;;;1.20;99.90;;;;;;5036937;28;20045;-75
2021/12/09 05:19:09;;;;;;;23.55;13.32;;;1.10;99.90;;;;;;5054097;28;20068;-74
2021/12/09 05:21:39;;;;;;;23.13;12.88;;;1.10;99.90;;;;;;5054064;28;20040;-75
2021/12/09 05:24:10;;;;;;;24.00;12.68;;;1.00;99.90;;;;;;5053988;28;20444;-75
2021/12/09 05:26:45;;;;;;;20.85;12.32;;;1.00;99.90;;;;;;5038127;28;20098;-75
2021/12/09 05:29:13;;;;;;;23.50;13.27;;;1.00;99.90;;;;;;5054667;28;20470;-75
2021/12/09 05:34:24;;;;;;;24.85;13.43;;;0.90;99.90;;;;;;5053781;28;20110;-75
2021/12/09 05:36:51;;;;;;;23.63;13.88;;;0.90;99.90;;;;;;5037424;28;20048;-74
2021/12/09 05:39:18;;;;;;;31.05;14.65;;;1.00;99.90;;;;;;5054118;28;20043;-75
2021/12/09 05:41:45;;;;;;;28.90;14.10;;;1.00;99.90;;;;;;5054671;28;20107;-75
2021/12/09 05:44:13;;;;;;;29.25;14.60;;;0.90;99.90;;;;;;5054980;28;20033;-75
2021/12/09 05:46:42;;;;;;;30.75;15.57;;;1.00;99.90;;;;;;5037734;28;20040;-74
2021/12/09 05:49:08;;;;;;;29.30;15.32;;;1.00;99.90;;;;;;5054104;28;20083;-76
2021/12/09 05:51:34;;;;;;;25.25;14.75;;;1.00;99.90;;;;;;5054101;28;20076;-75
2021/12/09 05:54:00;;;;;;;30.42;14.73;;;1.10;99.90;;;;;;5053812;28;20037;-75
2021/12/09 05:56:26;;;;;;;30.20;14.80;;;1.10;99.90;;;;;;5054218;28;20041;-75
2021/12/09 05:58:52;;;;;;;29.50;15.75;;;1.10;99.90;;;;;;5047996;28;20132;-75
2021/12/09 06:01:18;;;;;;;30.00;15.63;;;1.10;99.90;;;;;;5054127;28;20091;-74
2021/12/09 06:03:43;;;;;;;30.08;15.88;;;1.10;99.90;;;;;;5054030;28;20126;-74
2021/12/09 06:06:11;;;;;;;30.77;15.07;;;1.10;99.90;;;;;;5053437;28;20040;-75
2021/12/09 06:08:38;;;;;;;28.45;15.27;;;1.10;99.90;;;;;;5053320;28;20462;-75
2021/12/09 06:11:05;;;;;;;26.95;15.55;;;1.10;99.90;;;;;;5054521;28;20045;-76
2021/12/09 06:13:33;;;;;;;28.17;14.65;;;1.10;99.90;;;;;;5053697;28;20040;-74
2021/12/09 06:16:00;;;;;;;28.90;15.18;;;1.20;99.90;;;;;;5053558;28;20480;-74
2021/12/09 06:18:26;;;;;;;35.83;15.45;;;1.20;99.90;;;;;;5053669;28;20048;-76
2021/12/09 06:20:51;;;;;;;33.53;15.43;;;1.10;99.90;;;;;;5053416;28;20082;-73
2021/12/09 06:23:17;;;;;;;34.42;16.73;;;1.20;99.90;;;;;;5053329;28;20132;-73
2021/12/09 06:25:43;;;;;;;30.90;15.75;;;1.10;99.90;;;;;;5053716;28;20043;-74
2021/12/09 06:28:09;;;;;;;31.55;15.93;;;1.20;99.90;;;;;;5053875;28;20043;-74
2021/12/09 06:30:35;;;;;;;34.08;16.30;;;1.10;99.90;;;;;;5037239;28;20070;-75
2021/12/09 06:33:01;;;;;;;30.35;14.88;;;1.10;99.90;;;;;;5053443;28;20049;-72
2021/12/09 06:35:27;;;;;;;30.25;15.43;;;1.10;99.90;;;;;;5052813;28;20044;-73
2021/12/09 06:37:55;;;;;;;29.05;15.18;;;1.10;99.90;;;;;;5052984;28;20041;-73
2021/12/09 06:40:23;;;;;;;29.98;15.07;;;1.10;99.90;;;;;;5053345;28;20047;-75
2021/12/09 06:42:50;;;;;;;39.25;16.42;;;1.10;99.90;;;;;;5053708;28;20048;-75
2021/12/09 06:45:17;;;;;;;28.55;15.52;;;1.10;99.90;;;;;;5053477;28;20044;-74
2021/12/09 06:47:43;;;;;;;27.23;14.30;;;1.10;99.90;;;;;;5036440;28;20037;-75
2021/12/09 06:50:11;;;;;;;30.15;15.32;;;1.10;99.90;;;;;;5036090;28;20364;-74
2021/12/09 06:52:37;;;;;;;30.08;14.40;;;1.00;99.90;;;;;;5036726;28;20037;-74
2021/12/09 06:55:04;;;;;;;30.80;15.32;;;1.00;99.90;;;;;;5036698;28;20113;-75
2021/12/09 06:57:30;;;;;;;30.00;15.70;;;1.00;99.90;;;;;;5052747;28;20094;-74
2021/12/09 06:59:56;;;;;;;25.00;14.27;;;1.00;99.90;;;;;;5052799;28;20040;-75
2021/12/09 07:02:21;;;;;;;31.40;15.60;;;1.00;99.90;;;;;;5052677;28;20094;-74
2021/12/09 07:04:47;;;;;;;29.63;15.48;;;1.00;99.90;;;;;;5052190;28;20033;-74
2021/12/09 07:07:13;;;;;;;31.70;16.23;;;1.00;99.90;;;;;;5052422;28;20036;-74
2021/12/09 07:09:40;;;;;;;27.75;15.05;;;1.00;99.90;;;;;;5036064;28;20037;-74
2021/12/09 07:12:06;;;;;;;27.52;14.93;;;1.00;99.90;;;;;;5052781;28;20037;-73
2021/12/09 07:14:32;;;;;;;31.45;14.93;;;1.00;99.90;;;;;;5052800;28;20052;-74
2021/12/09 07:16:58;;;;;;;28.15;13.88;;;1.00;99.90;;;;;;5052479;28;20032;-73
2021/12/09 07:19:23;;;;;;;34.88;15.82;;;1.00;99.90;;;;;;5052423;28;20048;-75
2021/12/09 07:21:49;;;;;;;31.05;14.10;;;1.00;99.90;;;;;;5052699;28;20040;-74
2021/12/09 07:24:15;;;;;;;30.73;15.15;;;1.10;99.90;;;;;;5052784;28;20119;-73
2021/12/09 07:26:40;;;;;;;28.77;15.88;;;1.10;99.90;;;;;;5052678;28;20475;-74
2021/12/09 07:29:07;;;;;;;32.80;15.98;;;1.10;99.90;;;;;;5036090;28;20044;-74
2021/12/09 07:31:33;;;;;;;30.95;15.20;;;1.20;99.90;;;;;;5052388;28;20045;-74
2021/12/09 07:34:00;;;;;;;29.77;15.52;;;1.10;99.90;;;;;;5051944;28;20075;-74
2021/12/09 07:36:26;;;;;;;29.85;15.20;;;1.20;99.90;;;;;;5051545;28;20037;-71
2021/12/09 07:38:52;;;;;;;26.80;14.70;;;1.20;99.90;;;;;;5052212;28;20128;-72
2021/12/09 07:41:18;;;;;;;31.90;14.95;;;1.20;99.90;;;;;;5035351;28;20123;-72
2021/12/09 07:43:45;;;;;;;34.97;15.82;;;1.20;99.90;;;;;;5052309;28;20052;-73
2021/12/09 07:46:10;;;;;;;35.75;16.40;;;1.20;99.90;;;;;;5052185;28;20051;-73
2021/12/09 07:48:36;;;;;;;36.78;16.85;;;1.20;99.90;;;;;;5035168;28;20041;-73
2021/12/09 07:51:03;;;;;;;32.22;14.98;;;1.20;99.90;;;;;;5052258;28;20045;-72
2021/12/09 07:53:28;;;;;;;41.33;17.95;;;1.20;99.90;;;;;;5035679;28;20037;-72
2021/12/09 07:55:55;;;;;;;29.38;14.77;;;1.20;99.90;;;;;;5051731;28;20048;-72
2021/12/09 07:58:21;;;;;;;32.83;15.00;;;1.20;99.90;;;;;;5052229;28;20041;-72
2021/12/09 08:00:47;;;;;;;33.25;15.10;;;1.30;99.90;;;;;;5051890;28;20595;-72
2021/12/09 08:03:14;;;;;;;29.42;15.07;;;1.20;99.90;;;;;;5051871;28;20060;-73
2021/12/09 08:05:45;;;;;;;27.00;14.55;;;1.20;99.90;;;;;;5052827;28;20037;-74
2021/12/09 08:08:11;;;;;;;23.48;13.70;;;1.20;99.90;;;;;;5052375;28;20041;-73
2021/12/09 08:10:37;;;;;;;26.48;15.07;;;1.30;99.90;;;;;;5052391;28;20047;-73
2021/12/09 08:13:04;;;;;;;25.30;14.10;;;1.20;99.90;;;;;;5051818;28;20045;-73
2021/12/09 08:15:34;;;;;;;27.92;13.85;;;1.20;99.90;;;;;;5051706;28;20475;-72
2021/12/09 08:18:14;;;;;;;22.83;13.70;;;1.20;99.90;;;;;;5051576;28;20037;-72
2021/12/09 08:20:40;;;;;;;31.08;13.60;;;1.30;99.90;;;;;;5052382;28;20076;-75
2021/12/09 08:23:07;;;;;;;26.63;12.88;;;1.30;99.90;;;;;;5052056;28;20049;-73
2021/12/09 08:25:33;;;;;;;26.50;13.30;;;1.30;99.90;;;;;;5051643;28;20044;-73
2021/12/09 08:27:59;;;;;;;26.52;14.13;;;1.30;99.90;;;;;;5034711;28;20037;-73
2021/12/09 08:30:25;;;;;;;28.60;13.93;;;1.30;99.90;;;;;;5068195;28;20053;-73
2021/12/09 08:32:52;;;;;;;30.83;14.48;;;1.30;99.90;;;;;;5052129;28;20103;-73
2021/12/09 08:35:19;;;;;;;30.08;14.60;;;1.40;99.90;;;;;;5052354;28;20080;-73
2021/12/09 08:37:46;;;;;;;31.77;14.98;;;1.40;99.90;;;;;;5068577;28;20398;-73
2021/12/09 08:40:14;;;;;;;28.92;14.27;;;1.40;99.90;;;;;;5051853;28;20090;-72
2021/12/09 08:42:40;;;;;;;34.53;17.27;;;1.40;99.90;;;;;;5051699;28;20081;-74
2021/12/09 08:45:09;;;;;;;26.92;14.90;;;1.40;99.90;;;;;;5051440;28;20099;-75
2021/12/09 08:47:35;;;;;;;31.98;15.77;;;1.40;99.90;;;;;;5068442;28;20048;-73
2021/12/09 08:50:01;;;;;;;30.23;15.73;;;1.40;99.90;;;;;;5051652;28;20041;-74
2021/12/09 08:52:27;;;;;;;30.65;16.10;;;1.40;99.90;;;;;;5053588;28;20566;-74
2021/12/09 08:54:52;;;;;;;31.40;15.10;;;1.50;99.90;;;;;;5055153;28;20112;-74
2021/12/09 08:57:20;;;;;;;30.80;15.23;;;1.50;99.90;;;;;;5054849;28;20041;-73
2021/12/09 08:59:45;;;;;;;25.90;13.48;;;1.50;99.90;;;;;;5054739;28;20080;-73
2021/12/09 09:02:12;;;;;;;28.33;14.05;;;1.50;99.90;;;;;;5055020;28;20083;-72
2021/12/09 09:04:38;;;;;;;28.13;14.70;;;1.50;99.90;;;;;;5055611;28;20037;-73
2021/12/09 09:07:05;;;;;;;27.70;13.65;;;1.60;99.90;;;;;;5055268;28;20048;-72
2021/12/09 09:09:34;;;;;;;24.85;14.25;;;1.60;99.90;;;;;;5054964;28;20545;-73
2021/12/09 09:12:02;;;;;;;31.73;13.85;;;1.60;99.90;;;;;;5054568;28;20129;-72
2021/12/09 09:14:28;;;;;;;28.95;14.35;;;1.70;99.90;;;;;;5055182;28;20044;-73
2021/12/09 09:16:54;;;;;;;27.50;12.00;;;1.70;99.90;;;;;;5054767;28;20087;-74
2021/12/09 09:19:19;;;;;;;22.95;13.18;;;1.70;99.90;;;;;;5037770;28;20102;-73
2021/12/09 09:21:45;;;;;;;24.08;13.18;;;1.80;99.90;;;;;;5054820;28;20037;-72
2021/12/09 09:24:11;;;;;;;22.35;11.77;;;1.80;99.90;;;;;;5038159;28;20475;-73
2021/12/09 09:26:38;;;;;;;25.05;11.82;;;1.90;99.90;;;;;;5054406;28;20048;-73
2021/12/09 09:29:04;;;;;;;25.65;12.38;;;1.90;99.90;;;;;;5054339;28;20082;-73
2021/12/09 09:31:32;;;;;;;26.17;12.55;;;1.90;99.90;;;;;;5054757;28;20055;-73
2021/12/09 09:34:02;;;;;;;25.35;11.85;;;2.00;99.90;;;;;;5054416;28;20053;-74
2021/12/09 09:36:28;;;;;;;29.48;11.40;;;2.00;99.90;;;;;;5055456;28;20049;-73
2021/12/09 09:39:00;;;;;;;26.30;11.95;;;2.00;99.90;;;;;;5054302;28;20087;-73
2021/12/09 09:41:31;;;;;;;34.78;12.15;;;2.20;99.90;;;;;;5053724;28;20123;-73
2021/12/09 09:43:58;;;;;;;27.25;11.73;;;2.30;99.90;;;;;;5054485;28;20053;-72
2021/12/09 09:46:29;;;;;;;24.88;10.65;;;2.30;99.90;;;;;;5037667;28;20083;-74
2021/12/09 09:48:57;;;;;;;25.15;10.93;;;2.30;99.90;;;;;;5053821;28;20045;-74
2021/12/09 09:51:24;;;;;;;20.73;10.48;;;2.30;99.90;;;;;;5053975;28;20079;-73
2021/12/09 09:53:50;;;;;;;21.63;10.73;;;2.30;99.90;;;;;;5037017;28;20368;-74
2021/12/09 09:56:19;;;;;;;22.27;10.45;;;2.30;99.90;;;;;;5054269;28;20037;-73
2021/12/09 09:59:02;;;;;;;21.95;10.60;;;2.40;99.90;;;;;;5054154;28;20491;-73
2021/12/09 10:01:32;;;;;;;19.55;9.38;;;2.40;99.90;;;;;;5053978;28;20044;-80
2021/12/09 10:04:09;;;;;;;;;;;2.50;99.90;;;;;;5037189;28;20368;-73
2021/12/09 10:06:36;;;;;;;21.23;9.18;;;2.60;99.90;;;;;;5053689;28;20377;-73
2021/12/09 10:09:06;;;;;;;23.15;10.07;;;2.60;99.90;;;;;;5054060;28;20045;-72
2021/12/09 10:11:32;;;;;;;;;;;2.70;99.90;;;;;;5054306;28;20063;-72
2021/12/09 10:14:21;;;;;;;19.98;8.55;;;2.70;99.90;;;;;;5053806;28;20355;-72
2021/12/09 10:17:02;;;;;;;15.65;9.25;;;2.80;99.90;;;;;;5053346;28;20120;-72
2021/12/09 10:19:28;;;;;;;18.55;8.80;;;2.80;99.90;;;;;;5053346;28;20079;-71
2021/12/09 10:22:16;;;;;;;20.70;8.60;;;2.90;99.90;;;;;;5053397;28;20077;-72
2021/12/09 10:24:44;;;;;;;20.65;8.90;;;3.10;99.90;;;;;;5053176;28;20056;-73
2021/12/09 10:27:29;;;;;;;19.25;9.13;;;3.40;99.90;;;;;;5052920;28;20372;-72
2021/12/09 10:30:19;;;;;;;15.13;8.60;;;3.80;99.90;;;;;;5053523;28;20560;-71
2021/12/09 10:32:46;;;;;;;15.93;8.23;;;4.10;99.90;;;;;;5053223;28;20053;-71
2021/12/09 10:35:18;;;;;;;29.13;11.80;;;4.30;99.90;;;;;;5053319;28;20379;-72
2021/12/09 10:37:47;;;;;;;24.92;9.95;;;4.30;99.90;;;;;;5053017;28;20033;-73
2021/12/09 10:40:16;;;;;;;21.40;8.95;;;4.10;99.90;;;;;;5053472;28;20037;-71
2021/12/09 10:42:45;;;;;;;17.63;8.60;;;3.90;99.90;;;;;;5054128;28;20048;-74
2021/12/09 10:45:31;;;;;;;14.23;8.32;;;3.70;99.90;;;;;;5053277;28;20120;-72
2021/12/09 10:48:11;;;;;;;17.58;8.55;;;3.50;99.90;;;;;;5052573;28;20476;-71
2021/12/09 10:50:58;;;;;;;21.95;9.65;;;3.40;99.90;;;;;;5053402;28;20056;-71
2021/12/09 10:56:13;;;;;;;18.85;9.40;;;3.30;99.90;;;;;;5053026;28;20053;-72
2021/12/09 10:58:48;;;;;;;19.10;9.18;;;3.30;99.90;;;;;;5052729;28;20483;-73
2021/12/09 11:01:17;;;;;;;25.20;10.45;;;3.20;99.90;;;;;;5052728;28;20041;-72
2021/12/09 11:04:07;;;;;;;20.65;10.35;;;3.20;99.90;;;;;;5053401;28;20053;-72
2021/12/09 11:06:35;;;;;;;22.20;10.40;;;3.20;99.90;;;;;;5052463;28;20056;-72
2021/12/09 11:09:06;;;;;;;20.35;11.02;;;3.20;99.90;;;;;;5035900;28;20045;-71
2021/12/09 11:11:34;;;;;;;22.60;9.68;;;3.20;99.90;;;;;;5053395;28;20048;-71
2021/12/09 11:14:02;;;;;;;24.80;10.60;;;3.30;99.90;;;;;;5051373;28;20183;-71
2021/12/09 11:16:38;;;;;;;20.70;10.50;;;3.30;99.90;;;;;;5052898;28;20178;-72
2021/12/09 11:19:09;;;;;;;20.77;10.77;;;3.30;99.90;;;;;;5036174;28;20048;-72
2021/12/09 11:21:40;;;;;;;24.80;10.63;;;3.30;99.90;;;;;;5052054;28;20127;-73
2021/12/09 11:24:14;;;;;;;25.08;11.85;;;3.30;99.90;;;;;;5053107;28;20128;-72
2021/12/09 11:26:57;;;;;;;20.83;11.30;;;3.30;99.90;;;;;;5052663;28;20102;-72
2021/12/09 11:29:43;;;;;;;26.17;13.18;;;3.30;99.90;;;;;;5052521;28;20059;-72
2021/12/09 11:32:21;;;;;;;22.92;10.85;;;3.40;99.90;;;;;;5052492;28;20036;-72
2021/12/09 11:34:55;;;;;;;24.27;12.13;;;3.40;99.90;;;;;;5036060;28;20395;-73
2021/12/09 11:39:53;;;;;;;23.23;11.50;;;3.40;99.90;;;;;;5051801;28;20479;-72
2021/12/09 11:42:30;;;;;;;21.73;10.80;;;3.50;99.90;;;;;;5051852;28;20096;-71
2021/12/09 11:44:56;;;;;;;19.70;11.20;;;3.40;99.90;;;;;;5052132;28;20045;-73
2021/12/09 11:47:21;;;;;;;27.20;12.52;;;3.40;99.90;;;;;;5052367;28;20048;-72
2021/12/09 11:49:47;;;;;;;23.05;12.43;;;3.40;99.90;;;;;;5052010;28;20044;-72
2021/12/09 11:52:15;;;;;;;23.65;11.63;;;3.40;99.90;;;;;;5052221;28;20383;-72
2021/12/09 11:54:48;;;;;;;20.63;11.75;;;3.40;99.90;;;;;;5052138;28;20087;-72
2021/12/09 11:57:30;;;;;;;20.77;11.45;;;3.40;99.90;;;;;;5052511;28;20131;-73
2021/12/09 12:11:59;;;;;;;24.02;11.80;;;3.40;99.90;;;;;;5051710;28;20091;-74
2021/12/09 12:14:42;;;;;;;26.08;12.02;;;3.50;99.90;;;;;;5052241;28;20583;-72
2021/12/09 12:17:44;;;;;;;22.02;11.60;;;3.40;99.90;;;;;;5052357;28;20037;-73
2021/12/09 12:20:23;;;;;;;22.83;11.70;;;3.40;99.90;;;;;;5050170;28;20047;-73
2021/12/09 12:23:10;;;;;;;23.17;11.50;;;3.50;99.90;;;;;;5035261;28;20045;-72
2021/12/09 12:28:56;;;;;;;22.80;11.40;;;3.50;99.90;;;;;;5055534;28;20140;-72
2021/12/09 12:34:22;;;;;;;27.15;11.95;;;3.50;99.90;;;;;;5054511;28;20072;-73
2021/12/09 12:39:46;;;;;;;25.73;14.15;;;3.50;99.90;;;;;;5056202;28;20057;-73
2021/12/09 12:42:30;;;;;;;27.08;13.05;;;3.50;99.90;;;;;;5055431;28;20132;-73
2021/12/09 12:47:54;;;;;;;;;;;3.50;99.90;;;;;;5056553;28;20103;-73
2021/12/09 12:50:22;;;;;;;28.20;13.13;;;3.50;99.90;;;;;;5055543;28;19923;-72
2021/12/09 12:52:48;;;;;;;33.00;14.73;;;3.50;99.90;;;;;;5055230;28;20394;-72
2021/12/09 12:55:20;;;;;;;27.98;13.98;;;3.50;99.90;;;;;;5055131;28;20056;-73
2021/12/09 12:57:51;;;;;;;29.92;14.20;;;3.50;99.90;;;;;;5055560;28;20044;-73
2021/12/09 13:00:30;;;;;;;30.80;14.82;;;3.50;99.90;;;;;;5055720;28;20095;-73
2021/12/09 13:06:12;;;;;;;32.35;14.63;;;3.50;99.90;;;;;;5050239;28;20083;-72
2021/12/09 13:09:31;;;;;;;27.52;14.82;;;3.60;99.90;;;;;;5055229;28;20040;-73
2021/12/09 13:11:53;;;;;;;30.85;15.07;;;3.60;99.90;;;;;;5051042;28;20047;-72
2021/12/09 13:14:29;;;;;;;29.17;14.50;;;3.60;99.90;;;;;;5055119;28;20053;-72
2021/12/09 13:17:26;;;;;;;29.58;14.50;;;3.60;99.90;;;;;;5055118;28;20230;-72
2021/12/09 13:20:07;;;;;;;32.13;15.13;;;3.60;99.90;;;;;;5053839;28;20138;-73
2021/12/09 13:22:37;;;;;;;28.35;14.57;;;3.70;99.90;;;;;;5054466;28;20041;-73
2021/12/09 13:25:25;;;;;;;35.45;16.30;;;3.70;99.90;;;;;;5055037;28;20084;-72